CDT,Max TemperatureF,Mean TemperatureF,Min TemperatureF,Max Dew PointF,MeanDew PointF,Min DewpointF,Max Humidity, Mean Humidity, Min Humidity, Max Sea Level PressureIn, Mean Sea Level PressureIn, Min Sea Level PressureIn, Max VisibilityMiles, Mean VisibilityMiles, Min VisibilityMiles, Max Wind SpeedMPH, Mean Wind SpeedMPH, Max Gust SpeedMPH,PrecipitationIn, CloudCover, Events, WindDirDegrees
2011-10-1,59,47,35,37,34,32,100,66,36,30.35,30.28,30.22,10,10,10,13,8,16,0.00,0,,6
2011-10-2,68,55,42,36,33,32,70,46,26,30.29,30.24,30.17,10,10,10,12,5,,0.00,0,,266
2011-10-3,73,62,51,46,41,36,67,48,31,30.25,30.21,30.17,10,10,10,14,8,,0.00,0,,7
2011-10-4,75,62,50,46,42,41,71,52,29,30.30,30.25,30.19,10,10,10,9,6,,0.00,0,,178
2011-10-5,78,64,51,48,44,41,71,48,26,30.25,30.20,30.15,10,10,10,12,7,16,0.00,0,,177
2011-10-6,80,66,51,50,47,45,82,54,30,30.25,30.20,30.16,10,10,7,16,7,22,0.00,0,,150
2011-10-7,80,68,55,54,49,45,82,53,28,30.26,30.20,30.15,10,10,10,25,13,34,0.00,0,,174
2011-10-8,80,70,59,54,50,45,77,53,28,30.28,30.24,30.19,10,10,10,18,13,25,0.00,0,,186
2011-10-9,78,66,53,54,48,43,77,55,32,30.35,30.29,30.23,10,10,10,13,9,17,0.00,0,,173
2011-10-10,73,62,51,52,48,46,94,60,38,30.23,30.12,30.03,10,10,7,12,7,,0.00,0,,138
2011-10-11,73,64,55,61,53,46,100,68,53,30.02,29.97,29.91,10,10,10,13,7,20,0.00,3,,173
2011-10-12,69,63,57,61,58,55,100,88,60,29.90,29.78,29.65,10,6,0,16,6,20,0.74,7,Fog-Rain-Thunderstorm,96
2011-10-13,66,58,51,59,53,43,100,84,49,29.61,29.55,29.50,10,8,0,21,8,34,0.13,7,Fog-Rain,258
2011-10-14,60,52,44,43,38,32,87,63,34,29.67,29.60,29.56,10,10,10,29,16,39,0.00,3,,276
2011-10-15,60,51,42,37,34,32,76,54,34,29.86,29.80,29.70,10,10,10,29,19,36,0.00,1,,267
2011-10-16,59,52,46,41,34,27,76,51,29,29.85,29.81,29.76,10,10,10,25,7,34,0.00,3,Rain,279
2011-10-17,53,46,39,32,31,28,75,54,38,29.86,29.83,29.79,10,10,10,24,17,32,0.00,0,,259
2011-10-18,51,44,37,34,32,30,75,62,50,29.88,29.83,29.79,10,10,10,15,11,18,0.00,3,,317
2011-10-19,46,42,39,36,34,32,76,69,57,29.87,29.82,29.75,10,10,10,26,15,36,0.00,7,,360
2011-10-20,50,44,39,32,32,32,75,62,50,29.86,29.71,29.65,10,10,10,24,17,36,0.00,7,,332
2011-10-21,55,44,33,32,30,27,87,63,33,30.07,30.01,29.91,10,10,10,14,8,16,0.00,0,,286
2011-10-22,64,52,39,36,33,30,75,52,32,30.03,30.01,29.99,10,10,10,12,7,,0.00,0,,268
2011-10-23,64,53,42,50,38,32,94,55,32,29.98,29.91,29.78,10,10,5,18,7,29,0.08,3,Rain-Thunderstorm,207
2011-10-24,62,52,41,46,39,32,100,68,32,30.09,30.03,29.88,10,10,7,17,10,21,0.00,0,,251
2011-10-25,68,59,50,50,43,37,77,60,51,30.05,29.87,29.73,10,10,10,21,13,30,0.00,6,Rain,179
2011-10-26,46,44,41,45,39,32,100,83,61,30.00,29.94,29.82,10,9,4,20,14,28,0.00,7,,2
2011-10-27,50,44,39,34,32,30,76,64,50,30.12,30.03,29.97,10,10,10,15,5,24,0.00,5,Rain,291
2011-10-28,53,42,32,34,30,23,93,62,30,30.14,30.08,29.99,10,10,10,18,8,28,0.00,2,,215
2011-10-29,51,42,33,30,25,19,75,52,28,30.08,30.04,29.98,10,10,10,16,10,17,0.00,0,,276
2011-10-30,50,44,37,45,33,25,93,67,53,30.06,29.93,29.81,10,10,7,21,12,26,0.02,6,Rain,167
2011-10-31,48,42,35,37,34,32,93,76,61,30.09,30.01,29.92,10,10,10,13,9,17,0.00,6,,257